sensor_id;sensor_type;location;lat;lon;timestamp;pressure;altitude;pressure_sealevel;temperature;humidity
54882;BME280;40775;51.448;4.742;2023-05-03T00:01:22;102809.81;;;8.50;100.00
54882;BME280;40775;51.448;4.742;2023-05-03T00:03:52;102806.97;;;8.47;100.00
54882;BME280;40775;51.448;4.742;2023-05-03T00:06:19;102815.44;;;8.43;100.00
54882;BME280;40775;51.448;4.742;2023-05-03T00:08:46;102814.47;;;8.41;100.00
54882;BME280;40775;51.448;4.742;2023-05-03T00:11:14;102813.47;;;8.39;100.00
54882;BME280;40775;51.448;4.742;2023-05-03T00:13:41;102815.28;;;8.40;100.00
54882;BME280;40775;51.448;4.742;2023-05-03T00:16:09;102816.91;;;8.38;100.00
54882;BME280;40775;51.448;4.742;2023-05-03T00:18:36;102814.19;;;8.36;100.00
54882;BME280;40775;51.448;4.742;2023-05-03T00:21:03;102816.50;;;8.31;100.00
54882;BME280;40775;51.448;4.742;2023-05-03T00:23:30;102812.88;;;8.29;100.00
54882;BME280;40775;51.448;4.742;2023-05-03T00:25:57;102807.88;;;8.19;100.00
54882;BME280;40775;51.448;4.742;2023-05-03T00:28:25;102798.41;;;8.21;100.00
54882;BME280;40775;51.448;4.742;2023-05-03T00:30:52;102800.44;;;8.25;100.00
54882;BME280;40775;51.448;4.742;2023-05-03T00:33:19;102793.88;;;8.19;100.00
54882;BME280;40775;51.448;4.742;2023-05-03T00:35:47;102791.19;;;8.17;100.00
54882;BME280;40775;51.448;4.742;2023-05-03T00:38:14;102787.03;;;8.21;100.00
54882;BME280;40775;51.448;4.742;2023-05-03T00:40:42;102791.38;;;8.20;100.00
54882;BME280;40775;51.448;4.742;2023-05-03T00:43:11;102777.38;;;8.20;100.00
54882;BME280;40775;51.448;4.742;2023-05-03T00:45:39;102782.34;;;8.15;100.00
54882;BME280;40775;51.448;4.742;2023-05-03T00:48:06;102785.03;;;8.17;100.00
54882;BME280;40775;51.448;4.742;2023-05-03T00:50:34;102785.50;;;8.10;100.00
54882;BME280;40775;51.448;4.742;2023-05-03T00:53:02;102786.66;;;8.00;100.00
54882;BME280;40775;51.448;4.742;2023-05-03T00:55:29;102779.44;;;7.96;100.00
54882;BME280;40775;51.448;4.742;2023-05-03T00:57:58;102793.34;;;7.82;100.00
54882;BME280;40775;51.448;4.742;2023-05-03T01:00:24;102793.88;;;7.76;100.00
54882;BME280;40775;51.448;4.742;2023-05-03T01:02:51;102786.72;;;7.73;100.00
54882;BME280;40775;51.448;4.742;2023-05-03T01:05:20;102802.94;;;7.68;100.00
54882;BME280;40775;51.448;4.742;2023-05-03T01:08:13;102800.19;;;7.66;100.00
54882;BME280;40775;51.448;4.742;2023-05-03T01:10:57;102796.50;;;7.63;100.00
54882;BME280;40775;51.448;4.742;2023-05-03T01:13:41;102793.88;;;7.63;100.00
54882;BME280;40775;51.448;4.742;2023-05-03T01:16:23;102796.81;;;7.54;100.00
54882;BME280;40775;51.448;4.742;2023-05-03T01:18:54;102797.63;;;7.53;100.00
54882;BME280;40775;51.448;4.742;2023-05-03T01:21:21;102802.16;;;7.56;100.00
54882;BME280;40775;51.448;4.742;2023-05-03T01:24:10;102800.34;;;7.55;100.00
54882;BME280;40775;51.448;4.742;2023-05-03T01:26:39;102802.25;;;7.57;100.00
54882;BME280;40775;51.448;4.742;2023-05-03T01:29:06;102802.84;;;7.53;100.00
54882;BME280;40775;51.448;4.742;2023-05-03T01:31:56;102804.94;;;7.59;100.00
54882;BME280;40775;51.448;4.742;2023-05-03T01:36:57;102801.06;;;7.52;100.00
54882;BME280;40775;51.448;4.742;2023-05-03T01:39:45;102806.47;;;7.55;100.00
54882;BME280;40775;51.448;4.742;2023-05-03T01:42:14;102796.00;;;7.55;100.00
54882;BME280;40775;51.448;4.742;2023-05-03T01:44:41;102793.81;;;7.48;100.00
54882;BME280;40775;51.448;4.742;2023-05-03T01:47:09;102804.78;;;7.42;100.00
54882;BME280;40775;51.448;4.742;2023-05-03T01:49:36;102798.44;;;7.39;100.00
54882;BME280;40775;51.448;4.742;2023-05-03T01:52:03;102791.72;;;7.42;100.00
54882;BME280;40775;51.448;4.742;2023-05-03T01:54:30;102789.59;;;7.37;100.00
54882;BME280;40775;51.448;4.742;2023-05-03T01:56:57;102781.66;;;7.35;100.00
54882;BME280;40775;51.448;4.742;2023-05-03T01:59:24;102797.06;;;7.31;100.00
54882;BME280;40775;51.448;4.742;2023-05-03T02:01:51;102787.59;;;7.33;100.00
54882;BME280;40775;51.448;4.742;2023-05-03T02:04:18;102783.97;;;7.31;100.00
54882;BME280;40775;51.448;4.742;2023-05-03T02:06:45;102774.63;;;7.34;100.00
54882;BME280;40775;51.448;4.742;2023-05-03T02:09:12;102767.22;;;7.27;100.00
54882;BME280;40775;51.448;4.742;2023-05-03T02:11:39;102765.50;;;7.28;100.00
54882;BME280;40775;51.448;4.742;2023-05-03T02:14:06;102750.63;;;7.27;100.00
54882;BME280;40775;51.448;4.742;2023-05-03T02:16:33;102754.06;;;7.26;100.00
54882;BME280;40775;51.448;4.742;2023-05-03T02:19:00;102736.69;;;7.26;100.00
54882;BME280;40775;51.448;4.742;2023-05-03T02:21:27;102742.72;;;7.25;100.00
54882;BME280;40775;51.448;4.742;2023-05-03T02:23:54;102740.00;;;7.24;100.00
54882;BME280;40775;51.448;4.742;2023-05-03T02:26:21;102743.94;;;7.17;100.00
54882;BME280;40775;51.448;4.742;2023-05-03T02:28:48;102731.88;;;7.19;100.00
54882;BME280;40775;51.448;4.742;2023-05-03T02:31:15;102738.72;;;7.17;100.00
54882;BME280;40775;51.448;4.742;2023-05-03T02:33:42;102737.28;;;7.22;100.00
54882;BME280;40775;51.448;4.742;2023-05-03T02:36:09;102741.22;;;7.16;100.00
54882;BME280;40775;51.448;4.742;2023-05-03T02:38:36;102758.69;;;7.17;100.00
54882;BME280;40775;51.448;4.742;2023-05-03T02:41:03;102763.19;;;7.06;100.00
54882;BME280;40775;51.448;4.742;2023-05-03T02:43:31;102758.41;;;6.99;100.00
54882;BME280;40775;51.448;4.742;2023-05-03T02:45:58;102756.28;;;6.93;100.00
54882;BME280;40775;51.448;4.742;2023-05-03T02:48:25;102755.69;;;6.97;100.00
54882;BME280;40775;51.448;4.742;2023-05-03T02:50:52;102764.03;;;6.92;100.00
54882;BME280;40775;51.448;4.742;2023-05-03T02:53:20;102765.03;;;6.94;100.00
54882;BME280;40775;51.448;4.742;2023-05-03T02:55:48;102769.53;;;6.96;100.00
54882;BME280;40775;51.448;4.742;2023-05-03T02:58:15;102771.06;;;6.93;100.00
54882;BME280;40775;51.448;4.742;2023-05-03T03:00:42;102779.41;;;6.87;100.00
54882;BME280;40775;51.448;4.742;2023-05-03T03:03:09;102778.25;;;6.83;100.00
54882;BME280;40775;51.448;4.742;2023-05-03T03:05:36;102769.13;;;6.77;100.00
54882;BME280;40775;51.448;4.742;2023-05-03T03:08:04;102762.00;;;6.74;100.00
54882;BME280;40775;51.448;4.742;2023-05-03T03:10:31;102761.09;;;6.74;100.00
54882;BME280;40775;51.448;4.742;2023-05-03T03:12:58;102760.19;;;6.73;100.00
54882;BME280;40775;51.448;4.742;2023-05-03T03:15:25;102765.22;;;6.70;100.00
54882;BME280;40775;51.448;4.742;2023-05-03T03:17:52;102768.63;;;6.69;100.00
54882;BME280;40775;51.448;4.742;2023-05-03T03:20:23;102752.97;;;6.69;100.00
54882;BME280;40775;51.448;4.742;2023-05-03T03:22:50;102757.38;;;6.70;100.00
54882;BME280;40775;51.448;4.742;2023-05-03T03:25:19;102766.50;;;6.64;100.00
54882;BME280;40775;51.448;4.742;2023-05-03T03:27:46;102765.41;;;6.60;100.00
54882;BME280;40775;51.448;4.742;2023-05-03T03:30:13;102772.69;;;6.53;100.00
54882;BME280;40775;51.448;4.742;2023-05-03T03:32:40;102780.00;;;6.45;100.00
54882;BME280;40775;51.448;4.742;2023-05-03T03:35:08;102781.72;;;6.44;100.00
54882;BME280;40775;51.448;4.742;2023-05-03T03:37:37;102785.75;;;6.53;100.00
54882;BME280;40775;51.448;4.742;2023-05-03T03:40:05;102792.78;;;6.54;100.00
54882;BME280;40775;51.448;4.742;2023-05-03T03:42:33;102793.47;;;6.51;100.00
54882;BME280;40775;51.448;4.742;2023-05-03T03:45:00;102792.38;;;6.47;100.00
54882;BME280;40775;51.448;4.742;2023-05-03T03:47:26;102802.00;;;6.48;100.00
54882;BME280;40775;51.448;4.742;2023-05-03T03:49:53;102797.38;;;6.44;100.00
54882;BME280;40775;51.448;4.742;2023-05-03T03:52:21;102792.38;;;6.47;100.00
54882;BME280;40775;51.448;4.742;2023-05-03T03:54:48;102786.94;;;6.44;100.00
54882;BME280;40775;51.448;4.742;2023-05-03T03:57:15;102793.97;;;6.45;100.00
54882;BME280;40775;51.448;4.742;2023-05-03T03:59:41;102792.25;;;6.46;100.00
54882;BME280;40775;51.448;4.742;2023-05-03T04:02:08;102794.75;;;6.44;100.00
54882;BME280;40775;51.448;4.742;2023-05-03T04:04:35;102789.72;;;6.34;100.00
54882;BME280;40775;51.448;4.742;2023-05-03T04:07:03;102790.63;;;6.35;100.00
54882;BME280;40775;51.448;4.742;2023-05-03T04:09:30;102803.78;;;6.36;100.00
54882;BME280;40775;51.448;4.742;2023-05-03T04:11:57;102797.66;;;6.36;100.00
54882;BME280;40775;51.448;4.742;2023-05-03T04:14:24;102800.75;;;6.30;100.00
54882;BME280;40775;51.448;4.742;2023-05-03T04:16:51;102810.53;;;6.21;100.00
54882;BME280;40775;51.448;4.742;2023-05-03T04:19:18;102809.53;;;6.19;100.00
54882;BME280;40775;51.448;4.742;2023-05-03T04:21:47;102817.34;;;6.19;100.00
54882;BME280;40775;51.448;4.742;2023-05-03T04:24:14;102821.88;;;6.22;100.00
54882;BME280;40775;51.448;4.742;2023-05-03T04:26:42;102815.16;;;6.25;100.00
54882;BME280;40775;51.448;4.742;2023-05-03T04:29:10;102816.16;;;6.27;100.00
54882;BME280;40775;51.448;4.742;2023-05-03T04:31:40;102819.78;;;6.29;100.00
54882;BME280;40775;51.448;4.742;2023-05-03T04:34:07;102824.22;;;6.30;100.00
54882;BME280;40775;51.448;4.742;2023-05-03T04:36:36;102833.97;;;6.33;100.00
54882;BME280;40775;51.448;4.742;2023-05-03T04:39:03;102824.00;;;6.27;100.00
54882;BME280;40775;51.448;4.742;2023-05-03T04:41:31;102825.91;;;6.30;100.00
54882;BME280;40775;51.448;4.742;2023-05-03T04:43:59;102826.28;;;6.23;100.00
54882;BME280;40775;51.448;4.742;2023-05-03T04:46:26;102824.69;;;6.25;100.00
54882;BME280;40775;51.448;4.742;2023-05-03T04:48:53;102818.78;;;6.27;100.00
54882;BME280;40775;51.448;4.742;2023-05-03T04:51:20;102819.78;;;6.29;100.00
54882;BME280;40775;51.448;4.742;2023-05-03T04:53:46;102827.06;;;6.33;100.00
54882;BME280;40775;51.448;4.742;2023-05-03T04:56:14;102823.25;;;6.41;100.00
54882;BME280;40775;51.448;4.742;2023-05-03T04:58:41;102822.56;;;6.44;100.00
54882;BME280;40775;51.448;4.742;2023-05-03T05:01:10;102821.88;;;6.46;100.00
54882;BME280;40775;51.448;4.742;2023-05-03T05:03:37;102829.78;;;6.48;100.00
54882;BME280;40775;51.448;4.742;2023-05-03T05:06:04;102827.50;;;6.53;100.00
54882;BME280;40775;51.448;4.742;2023-05-03T05:08:33;102824.28;;;6.57;100.00
54882;BME280;40775;51.448;4.742;2023-05-03T05:11:01;102821.31;;;6.64;100.00
54882;BME280;40775;51.448;4.742;2023-05-03T05:13:30;102827.94;;;6.72;100.00
54882;BME280;40775;51.448;4.742;2023-05-03T05:15:57;102826.16;;;6.71;100.00
54882;BME280;40775;51.448;4.742;2023-05-03T05:18:24;102820.31;;;6.75;100.00
54882;BME280;40775;51.448;4.742;2023-05-03T05:20:51;102827.56;;;6.79;100.00
54882;BME280;40775;51.448;4.742;2023-05-03T05:23:18;102828.41;;;6.91;100.00
54882;BME280;40775;51.448;4.742;2023-05-03T05:25:45;102835.81;;;6.98;100.00
54882;BME280;40775;51.448;4.742;2023-05-03T05:28:12;102832.81;;;7.05;100.00
54882;BME280;40775;51.448;4.742;2023-05-03T05:30:39;102841.66;;;7.07;100.00
54882;BME280;40775;51.448;4.742;2023-05-03T05:33:07;102832.84;;;7.19;100.00
54882;BME280;40775;51.448;4.742;2023-05-03T05:35:34;102839.94;;;7.34;100.00
54882;BME280;40775;51.448;4.742;2023-05-03T05:38:01;102830.13;;;7.30;100.00
54882;BME280;40775;51.448;4.742;2023-05-03T05:40:28;102847.41;;;7.41;100.00
54882;BME280;40775;51.448;4.742;2023-05-03T05:42:55;102845.69;;;7.42;100.00
54882;BME280;40775;51.448;4.742;2023-05-03T05:45:22;102839.00;;;8.15;100.00
54882;BME280;40775;51.448;4.742;2023-05-03T05:47:49;102836.41;;;11.08;100.00
54882;BME280;40775;51.448;4.742;2023-05-03T05:50:17;102816.41;;;12.81;100.00
54882;BME280;40775;51.448;4.742;2023-05-03T05:52:45;102812.41;;;13.76;100.00
54882;BME280;40775;51.448;4.742;2023-05-03T05:55:12;102817.34;;;14.37;100.00
54882;BME280;40775;51.448;4.742;2023-05-03T05:57:40;102820.06;;;14.62;100.00
54882;BME280;40775;51.448;4.742;2023-05-03T06:00:07;102818.38;;;14.90;100.00
54882;BME280;40775;51.448;4.742;2023-05-03T06:02:40;102812.88;;;15.09;100.00
54882;BME280;40775;51.448;4.742;2023-05-03T06:05:08;102808.91;;;15.23;100.00
54882;BME280;40775;51.448;4.742;2023-05-03T06:07:36;102808.16;;;15.27;100.00
54882;BME280;40775;51.448;4.742;2023-05-03T06:10:03;102810.38;;;15.40;100.00
54882;BME280;40775;51.448;4.742;2023-05-03T06:12:31;102801.53;;;15.40;100.00
54882;BME280;40775;51.448;4.742;2023-05-03T06:14:58;102801.84;;;15.51;100.00
54882;BME280;40775;51.448;4.742;2023-05-03T06:17:28;102799.16;;;15.49;100.00
54882;BME280;40775;51.448;4.742;2023-05-03T06:19:56;102796.50;;;15.49;100.00
54882;BME280;40775;51.448;4.742;2023-05-03T06:22:24;102799.47;;;15.58;100.00
54882;BME280;40775;51.448;4.742;2023-05-03T06:24:51;102801.75;;;15.74;100.00
54882;BME280;40775;51.448;4.742;2023-05-03T06:27:18;102793.13;;;15.82;100.00
54882;BME280;40775;51.448;4.742;2023-05-03T06:29:46;102792.31;;;15.84;100.00
54882;BME280;40775;51.448;4.742;2023-05-03T06:32:13;102796.63;;;15.81;100.00
54882;BME280;40775;51.448;4.742;2023-05-03T06:34:40;102798.38;;;15.80;100.00
54882;BME280;40775;51.448;4.742;2023-05-03T06:37:07;102792.28;;;15.83;100.00
54882;BME280;40775;51.448;4.742;2023-05-03T06:39:34;102795.06;;;15.87;100.00
54882;BME280;40775;51.448;4.742;2023-05-03T06:42:01;102784.53;;;15.89;100.00
54882;BME280;40775;51.448;4.742;2023-05-03T06:44:28;102784.53;;;15.89;100.00
54882;BME280;40775;51.448;4.742;2023-05-03T06:46:55;102787.31;;;15.93;100.00
54882;BME280;40775;51.448;4.742;2023-05-03T06:49:22;102791.13;;;16.03;100.00
54882;BME280;40775;51.448;4.742;2023-05-03T06:51:49;102790.22;;;16.02;100.00
54882;BME280;40775;51.448;4.742;2023-05-03T06:54:16;102789.31;;;16.02;100.00
54882;BME280;40775;51.448;4.742;2023-05-03T06:56:43;102793.63;;;15.98;100.00
54882;BME280;40775;51.448;4.742;2023-05-03T06:59:10;102785.94;;;16.07;100.00
54882;BME280;40775;51.448;4.742;2023-05-03T07:01:36;102792.09;;;16.06;100.00
54882;BME280;40775;51.448;4.742;2023-05-03T07:04:03;102786.13;;;16.14;100.00
54882;BME280;40775;51.448;4.742;2023-05-03T07:06:31;102771.94;;;16.12;100.00
54882;BME280;40775;51.448;4.742;2023-05-03T07:09:14;102774.38;;;16.04;100.00
54882;BME280;40775;51.448;4.742;2023-05-03T07:11:41;102772.75;;;16.09;100.00
54882;BME280;40775;51.448;4.742;2023-05-03T07:14:15;102784.31;;;16.13;100.00
54882;BME280;40775;51.448;4.742;2023-05-03T07:16:42;102779.22;;;16.19;100.00
54882;BME280;40775;51.448;4.742;2023-05-03T07:19:09;102775.88;;;16.26;100.00
54882;BME280;40775;51.448;4.742;2023-05-03T07:21:36;102775.78;;;16.23;100.00
54882;BME280;40775;51.448;4.742;2023-05-03T07:24:03;102778.50;;;16.24;100.00
54882;BME280;40775;51.448;4.742;2023-05-03T07:26:30;102772.16;;;16.19;100.00
54882;BME280;40775;51.448;4.742;2023-05-03T07:28:57;102770.38;;;16.18;100.00
54882;BME280;40775;51.448;4.742;2023-05-03T07:31:23;102769.63;;;16.24;100.00
54882;BME280;40775;51.448;4.742;2023-05-03T07:33:50;102771.78;;;16.38;100.00
54882;BME280;40775;51.448;4.742;2023-05-03T07:36:17;102761.19;;;16.38;100.00
54882;BME280;40775;51.448;4.742;2023-05-03T07:38:44;102762.97;;;16.39;100.00
54882;BME280;40775;51.448;4.742;2023-05-03T07:41:12;102757.59;;;16.36;100.00
54882;BME280;40775;51.448;4.742;2023-05-03T07:43:39;102754.09;;;16.37;100.00
54882;BME280;40775;51.448;4.742;2023-05-03T07:46:06;102748.00;;;16.42;100.00
54882;BME280;40775;51.448;4.742;2023-05-03T07:48:33;102758.03;;;16.52;100.00
54882;BME280;40775;51.448;4.742;2023-05-03T07:51:02;102746.38;;;16.45;100.00
54882;BME280;40775;51.448;4.742;2023-05-03T07:53:30;102740.28;;;16.49;100.00
54882;BME280;40775;51.448;4.742;2023-05-03T07:55:57;102741.25;;;16.53;100.00
54882;BME280;40775;51.448;4.742;2023-05-03T07:58:24;102737.63;;;16.49;100.00
54882;BME280;40775;51.448;4.742;2023-05-03T08:01:05;102727.00;;;16.48;100.00
54882;BME280;40775;51.448;4.742;2023-05-03T08:03:32;102720.91;;;16.52;100.00
54882;BME280;40775;51.448;4.742;2023-05-03T08:05:59;102720.00;;;16.51;100.00
54882;BME280;40775;51.448;4.742;2023-05-03T08:08:26;102713.97;;;16.57;100.00
54882;BME280;40775;51.448;4.742;2023-05-03T08:10:53;102713.69;;;16.46;100.00
54882;BME280;40775;51.448;4.742;2023-05-03T08:13:20;102716.31;;;16.45;100.00
54882;BME280;40775;51.448;4.742;2023-05-03T08:15:49;102719.03;;;16.48;100.00
54882;BME280;40775;51.448;4.742;2023-05-03T08:18:16;102714.81;;;16.56;100.00
54882;BME280;40775;51.448;4.742;2023-05-03T08:20:43;102713.13;;;16.59;100.00
54882;BME280;40775;51.448;4.742;2023-05-03T08:23:10;102725.63;;;16.63;100.00
54882;BME280;40775;51.448;4.742;2023-05-03T08:25:37;102733.59;;;16.65;100.00
54882;BME280;40775;51.448;4.742;2023-05-03T08:28:04;102727.56;;;16.69;100.00
54882;BME280;40775;51.448;4.742;2023-05-03T08:30:33;102734.63;;;16.68;100.00
54882;BME280;40775;51.448;4.742;2023-05-03T08:33:00;102746.22;;;16.72;100.00
54882;BME280;40775;51.448;4.742;2023-05-03T08:35:27;102741.81;;;16.73;100.00
54882;BME280;40775;51.448;4.742;2023-05-03T08:37:54;102738.09;;;16.66;100.00
54882;BME280;40775;51.448;4.742;2023-05-03T08:40:21;102738.09;;;16.66;100.00
54882;BME280;40775;51.448;4.742;2023-05-03T08:42:48;102733.72;;;16.68;100.00
54882;BME280;40775;51.448;4.742;2023-05-03T08:45:18;102733.00;;;16.74;100.00
54882;BME280;40775;51.448;4.742;2023-05-03T08:47:45;102728.41;;;16.68;100.00
54882;BME280;40775;51.448;4.742;2023-05-03T08:50:13;102726.69;;;16.70;100.00
54882;BME280;40775;51.448;4.742;2023-05-03T08:52:42;102726.81;;;16.73;100.00
54882;BME280;40775;51.448;4.742;2023-05-03T08:55:09;102729.50;;;16.75;100.00
54882;BME280;40775;51.448;4.742;2023-05-03T08:57:36;102727.72;;;16.75;100.00
54882;BME280;40775;51.448;4.742;2023-05-03T09:00:04;102719.84;;;16.78;100.00
54882;BME280;40775;51.448;4.742;2023-05-03T09:02:34;102724.94;;;16.71;100.00
54882;BME280;40775;51.448;4.742;2023-05-03T09:08:09;102721.50;;;16.73;100.00
54882;BME280;40775;51.448;4.742;2023-05-03T09:10:38;102728.66;;;16.77;100.00
54882;BME280;40775;51.448;4.742;2023-05-03T09:13:06;102723.63;;;16.88;100.00
54882;BME280;40775;51.448;4.742;2023-05-03T09:15:33;102727.09;;;16.85;100.00
54882;BME280;40775;51.448;4.742;2023-05-03T09:20:41;102720.19;;;16.93;100.00
54882;BME280;40775;51.448;4.742;2023-05-03T09:23:36;102727.22;;;16.91;100.00
54882;BME280;40775;51.448;4.742;2023-05-03T09:26:03;102717.44;;;16.89;100.00
54882;BME280;40775;51.448;4.742;2023-05-03T09:28:41;102717.56;;;16.93;100.00
54882;BME280;40775;51.448;4.742;2023-05-03T09:31:11;102709.41;;;16.86;100.00
54882;BME280;40775;51.448;4.742;2023-05-03T09:33:39;102713.84;;;16.87;100.00
54882;BME280;40775;51.448;4.742;2023-05-03T09:36:06;102711.25;;;16.88;100.00
54882;BME280;40775;51.448;4.742;2023-05-03T09:38:34;102721.06;;;16.92;100.00
54882;BME280;40775;51.448;4.742;2023-05-03T09:41:04;102726.56;;;17.00;100.00
54882;BME280;40775;51.448;4.742;2023-05-03T09:43:34;102714.84;;;16.92;100.00
54882;BME280;40775;51.448;4.742;2023-05-03T09:46:09;102714.84;;;16.92;100.00
54882;BME280;40775;51.448;4.742;2023-05-03T09:48:40;102713.41;;;17.05;100.00
54882;BME280;40775;51.448;4.742;2023-05-03T09:51:07;102710.78;;;17.06;100.00
54882;BME280;40775;51.448;4.742;2023-05-03T09:53:36;102708.19;;;17.08;100.00
54882;BME280;40775;51.448;4.742;2023-05-03T09:56:12;102712.31;;;16.96;100.00
54882;BME280;40775;51.448;4.742;2023-05-03T09:58:41;102710.53;;;16.95;100.00
54882;BME280;40775;51.448;4.742;2023-05-03T10:01:09;102714.22;;;17.01;100.00
54882;BME280;40775;51.448;4.742;2023-05-03T10:03:39;102720.13;;;16.90;100.00
54882;BME280;40775;51.448;4.742;2023-05-03T10:06:25;102720.19;;;16.93;100.00
54882;BME280;40775;51.448;4.742;2023-05-03T10:09:05;102710.56;;;16.97;100.00
54882;BME280;40775;51.448;4.742;2023-05-03T10:11:37;102710.88;;;17.09;100.00
54882;BME280;40775;51.448;4.742;2023-05-03T10:14:05;102708.38;;;17.17;100.00
54882;BME280;40775;51.448;4.742;2023-05-03T10:16:36;102706.63;;;17.17;100.00
54882;BME280;40775;51.448;4.742;2023-05-03T10:19:24;102712.72;;;17.13;100.00
54882;BME280;40775;51.448;4.742;2023-05-03T10:24:32;102703.19;;;17.23;100.00
54882;BME280;40775;51.448;4.742;2023-05-03T10:27:00;102705.09;;;17.27;100.00
54882;BME280;40775;51.448;4.742;2023-05-03T10:32:05;102703.13;;;17.20;100.00
54882;BME280;40775;51.448;4.742;2023-05-03T10:35:24;102698.66;;;17.17;100.00
54882;BME280;40775;51.448;4.742;2023-05-03T10:37:49;102702.13;;;17.15;100.00
54882;BME280;40775;51.448;4.742;2023-05-03T10:40:17;102694.34;;;17.22;100.00
54882;BME280;40775;51.448;4.742;2023-05-03T10:42:48;102690.81;;;17.23;100.00
54882;BME280;40775;51.448;4.742;2023-05-03T10:45:28;102693.56;;;17.26;100.00
54882;BME280;40775;51.448;4.742;2023-05-03T10:50:38;102689.03;;;17.22;100.00
54882;BME280;40775;51.448;4.742;2023-05-03T10:53:05;102685.47;;;17.22;100.00
54882;BME280;40775;51.448;4.742;2023-05-03T10:55:33;102694.28;;;17.19;100.00
54882;BME280;40775;51.448;4.742;2023-05-03T10:58:00;102689.91;;;17.21;100.00
54882;BME280;40775;51.448;4.742;2023-05-03T11:05:46;102671.28;;;17.20;100.00
54882;BME280;40775;51.448;4.742;2023-05-03T11:08:17;102679.31;;;17.23;100.00
54882;BME280;40775;51.448;4.742;2023-05-03T11:10:45;102674.09;;;17.26;100.00
54882;BME280;40775;51.448;4.742;2023-05-03T11:13:13;102668.97;;;17.35;100.00
54882;BME280;40775;51.448;4.742;2023-05-03T11:15:40;102665.47;;;17.36;100.00
54882;BME280;40775;51.448;4.742;2023-05-03T11:18:09;102663.63;;;17.34;100.00
54882;BME280;40775;51.448;4.742;2023-05-03T11:20:39;102658.38;;;17.37;100.00
54882;BME280;40775;51.448;4.742;2023-05-03T11:23:06;102658.41;;;17.38;100.00
54882;BME280;40775;51.448;4.742;2023-05-03T11:25:33;102654.91;;;17.39;100.00
54882;BME280;40775;51.448;4.742;2023-05-03T11:28:01;102651.47;;;17.45;100.00
54882;BME280;40775;51.448;4.742;2023-05-03T11:30:32;102645.28;;;17.46;100.00
54882;BME280;40775;51.448;4.742;2023-05-03T11:32:59;102644.34;;;17.42;100.00
54882;BME280;40775;51.448;4.742;2023-05-03T11:35:28;102642.41;;;17.34;100.00
54882;BME280;40775;51.448;4.742;2023-05-03T11:37:55;102645.09;;;17.35;100.00
54882;BME280;40775;51.448;4.742;2023-05-03T11:40:22;102637.22;;;17.40;100.00
54882;BME280;40775;51.448;4.742;2023-05-03T11:42:57;102627.56;;;17.45;100.00
54882;BME280;40775;51.448;4.742;2023-05-03T11:45:31;102621.44;;;17.49;100.00
54882;BME280;40775;51.448;4.742;2023-05-03T11:48:04;102624.94;;;17.46;100.00
54882;BME280;40775;51.448;4.742;2023-05-03T11:50:52;102624.06;;;17.46;100.00
54882;BME280;40775;51.448;4.742;2023-05-03T11:53:23;102618.81;;;17.49;100.00
54882;BME280;40775;51.448;4.742;2023-05-03T11:55:52;102614.50;;;17.54;100.00
54882;BME280;40775;51.448;4.742;2023-05-03T11:58:24;102610.09;;;17.54;100.00
54882;BME280;40775;51.448;4.742;2023-05-03T12:00:54;102598.44;;;17.49;100.00
54882;BME280;40775;51.448;4.742;2023-05-03T12:03:25;102596.69;;;17.50;100.00
54882;BME280;40775;51.448;4.742;2023-05-03T12:05:58;102598.59;;;17.55;100.00
54882;BME280;40775;51.448;4.742;2023-05-03T12:08:29;102594.97;;;17.52;100.00
54882;BME280;40775;51.448;4.742;2023-05-03T12:11:02;102597.59;;;17.50;100.00
54882;BME280;40775;51.448;4.742;2023-05-03T12:13:33;102597.53;;;17.47;100.00
54882;BME280;40775;51.448;4.742;2023-05-03T12:16:07;102588.88;;;17.56;100.00
54882;BME280;40775;51.448;4.742;2023-05-03T12:18:51;102589.81;;;17.59;100.00
54882;BME280;40775;51.448;4.742;2023-05-03T12:21:23;102567.69;;;17.60;100.00
54882;BME280;40775;51.448;4.742;2023-05-03T12:23:53;102569.44;;;17.58;100.00
54882;BME280;40775;51.448;4.742;2023-05-03T12:26:22;102564.06;;;17.55;100.00
54882;BME280;40775;51.448;4.742;2023-05-03T12:28:52;102558.66;;;17.52;100.00
54882;BME280;40775;51.448;4.742;2023-05-03T12:31:22;102572.81;;;17.51;100.00
54882;BME280;40775;51.448;4.742;2023-05-03T12:33:50;102555.25;;;17.56;100.00
54882;BME280;40775;51.448;4.742;2023-05-03T12:36:20;102548.13;;;17.55;100.00
54882;BME280;40775;51.448;4.742;2023-05-03T12:38:51;102549.00;;;17.54;100.00
54882;BME280;40775;51.448;4.742;2023-05-03T12:41:22;102550.91;;;17.61;100.00
54882;BME280;40775;51.448;4.742;2023-05-03T12:44:13;102545.63;;;17.63;100.00
54882;BME280;40775;51.448;4.742;2023-05-03T12:46:42;102545.63;;;17.63;100.00
54882;BME280;40775;51.448;4.742;2023-05-03T12:49:11;102543.06;;;17.68;100.00
54882;BME280;40775;51.448;4.742;2023-05-03T12:51:41;102539.66;;;17.75;100.00
54882;BME280;40775;51.448;4.742;2023-05-03T12:54:09;102539.69;;;17.76;100.00
54882;BME280;40775;51.448;4.742;2023-05-03T12:56:37;102526.38;;;17.75;100.00
54882;BME280;40775;51.448;4.742;2023-05-03T12:59:07;102527.34;;;17.80;100.00
54882;BME280;40775;51.448;4.742;2023-05-03T13:01:54;102514.16;;;17.84;100.00
54882;BME280;40775;51.448;4.742;2023-05-03T13:04:23;102523.03;;;17.85;100.00
54882;BME280;40775;51.448;4.742;2023-05-03T13:06:54;102511.47;;;17.83;100.00
54882;BME280;40775;51.448;4.742;2023-05-03T13:09:25;102509.78;;;17.88;100.00
54882;BME280;40775;51.448;4.742;2023-05-03T13:12:13;102516.84;;;17.86;100.00
54882;BME280;40775;51.448;4.742;2023-05-03T13:14:40;102504.44;;;17.85;100.00
54882;BME280;40775;51.448;4.742;2023-05-03T13:17:09;102504.47;;;17.88;100.00